Emmet, Arkansas
Current Conditions -  °F | °C
As of 10:21 PM on Monday 22 Dec 2014 (Local Time) from KADF Reporting Station
Haze Haze  
Wind Chill: 54°   Ceiling: 2800
Heat Index: 54°   Visibility: 6mi
Dew Point: 54°   Wind: 6mph
Humidity: 100%   Direction: 10°N
Pressure: 29.66"   Gusts: NA
Location:  33.73°N, 93.47°W
Report Text: KADF 230421Z AUTO 01005KT 6SM BR FEW010 BKN028 BKN036 12/12 A2966 RMK AO2 BKN V SCT
Loading
Personal Weather Stations






























Interactive Weather Map New forecast layout! Learn more

10-Day Weather Forecast

Advertisements
Track Severe Weather on mobile